sensor_id;sensor_type;location;lat;lon;timestamp;P1;durP1;ratioP1;P2;durP2;ratioP2
22357;SDS011;11346;50.150;8.150;2022-10-16T00:00:47;2.30;;;1.73;;
22357;SDS011;11346;50.150;8.150;2022-10-16T00:03:14;1.83;;;1.70;;
22357;SDS011;11346;50.150;8.150;2022-10-16T00:05:43;4.23;;;2.17;;
22357;SDS011;11346;50.150;8.150;2022-10-16T00:08:10;5.83;;;1.90;;
22357;SDS011;11346;50.150;8.150;2022-10-16T00:10:38;2.47;;;2.10;;
22357;SDS011;11346;50.150;8.150;2022-10-16T00:13:05;2.13;;;2.03;;
22357;SDS011;11346;50.150;8.150;2022-10-16T00:15:32;3.87;;;1.93;;
22357;SDS011;11346;50.150;8.150;2022-10-16T00:18:01;5.00;;;1.80;;
22357;SDS011;11346;50.150;8.150;2022-10-16T00:20:28;2.57;;;2.00;;
22357;SDS011;11346;50.150;8.150;2022-10-16T00:22:57;6.20;;;3.43;;
22357;SDS011;11346;50.150;8.150;2022-10-16T00:25:24;2.87;;;2.10;;
22357;SDS011;11346;50.150;8.150;2022-10-16T00:27:51;2.97;;;1.70;;
22357;SDS011;11346;50.150;8.150;2022-10-16T00:30:18;3.83;;;1.60;;
22357;SDS011;11346;50.150;8.150;2022-10-16T00:32:45;2.23;;;1.30;;
22357;SDS011;11346;50.150;8.150;2022-10-16T00:35:12;4.53;;;1.47;;
22357;SDS011;11346;50.150;8.150;2022-10-16T00:37:39;3.90;;;1.83;;
22357;SDS011;11346;50.150;8.150;2022-10-16T00:40:08;3.73;;;1.60;;
22357;SDS011;11346;50.150;8.150;2022-10-16T00:42:35;3.00;;;1.57;;
22357;SDS011;11346;50.150;8.150;2022-10-16T00:45:02;3.83;;;2.00;;
22357;SDS011;11346;50.150;8.150;2022-10-16T00:47:31;2.97;;;1.70;;
22357;SDS011;11346;50.150;8.150;2022-10-16T00:50:00;2.90;;;1.60;;
22357;SDS011;11346;50.150;8.150;2022-10-16T00:52:28;3.47;;;1.80;;
22357;SDS011;11346;50.150;8.150;2022-10-16T00:54:55;4.57;;;1.40;;
22357;SDS011;11346;50.150;8.150;2022-10-16T00:57:24;2.30;;;1.53;;
22357;SDS011;11346;50.150;8.150;2022-10-16T00:59:51;1.53;;;1.40;;
22357;SDS011;11346;50.150;8.150;2022-10-16T01:02:19;1.20;;;1.20;;
22357;SDS011;11346;50.150;8.150;2022-10-16T01:04:47;2.80;;;1.50;;
22357;SDS011;11346;50.150;8.150;2022-10-16T01:07:18;1.57;;;1.33;;
22357;SDS011;11346;50.150;8.150;2022-10-16T01:09:51;4.00;;;1.63;;
22357;SDS011;11346;50.150;8.150;2022-10-16T01:12:22;2.77;;;1.50;;
22357;SDS011;11346;50.150;8.150;2022-10-16T01:14:53;3.17;;;1.30;;
22357;SDS011;11346;50.150;8.150;2022-10-16T01:17:21;1.30;;;1.20;;
22357;SDS011;11346;50.150;8.150;2022-10-16T01:22:33;2.00;;;1.27;;
22357;SDS011;11346;50.150;8.150;2022-10-16T01:25:05;1.40;;;1.40;;
22357;SDS011;11346;50.150;8.150;2022-10-16T01:27:37;2.57;;;1.50;;
22357;SDS011;11346;50.150;8.150;2022-10-16T01:30:07;1.40;;;1.30;;
22357;SDS011;11346;50.150;8.150;2022-10-16T01:32:38;6.53;;;1.30;;
22357;SDS011;11346;50.150;8.150;2022-10-16T01:35:08;2.67;;;1.40;;
22357;SDS011;11346;50.150;8.150;2022-10-16T01:37:38;1.60;;;1.20;;
22357;SDS011;11346;50.150;8.150;2022-10-16T01:40:08;2.50;;;1.30;;
22357;SDS011;11346;50.150;8.150;2022-10-16T01:42:38;1.30;;;1.20;;
22357;SDS011;11346;50.150;8.150;2022-10-16T01:45:07;3.53;;;1.13;;
22357;SDS011;11346;50.150;8.150;2022-10-16T01:47:36;1.20;;;1.10;;
22357;SDS011;11346;50.150;8.150;2022-10-16T01:50:04;1.33;;;1.23;;
22357;SDS011;11346;50.150;8.150;2022-10-16T01:52:33;2.70;;;1.00;;
22357;SDS011;11346;50.150;8.150;2022-10-16T01:55:02;1.37;;;1.27;;
22357;SDS011;11346;50.150;8.150;2022-10-16T01:57:30;4.03;;;1.30;;
22357;SDS011;11346;50.150;8.150;2022-10-16T02:00:02;1.30;;;1.27;;
22357;SDS011;11346;50.150;8.150;2022-10-16T02:02:30;1.67;;;1.27;;
22357;SDS011;11346;50.150;8.150;2022-10-16T02:04:58;3.03;;;1.40;;
22357;SDS011;11346;50.150;8.150;2022-10-16T02:07:26;2.20;;;1.40;;
22357;SDS011;11346;50.150;8.150;2022-10-16T02:09:53;4.37;;;1.23;;
22357;SDS011;11346;50.150;8.150;2022-10-16T02:12:22;2.27;;;1.40;;
22357;SDS011;11346;50.150;8.150;2022-10-16T02:14:50;1.83;;;1.40;;
22357;SDS011;11346;50.150;8.150;2022-10-16T02:17:19;1.20;;;1.20;;
22357;SDS011;11346;50.150;8.150;2022-10-16T02:19:47;1.33;;;1.30;;
22357;SDS011;11346;50.150;8.150;2022-10-16T02:22:15;3.40;;;1.80;;
22357;SDS011;11346;50.150;8.150;2022-10-16T02:24:44;1.53;;;1.30;;
22357;SDS011;11346;50.150;8.150;2022-10-16T02:27:15;3.13;;;1.57;;
22357;SDS011;11346;50.150;8.150;2022-10-16T02:29:46;1.40;;;1.30;;
22357;SDS011;11346;50.150;8.150;2022-10-16T02:32:15;1.60;;;1.50;;
22357;SDS011;11346;50.150;8.150;2022-10-16T02:34:44;2.00;;;1.80;;
22357;SDS011;11346;50.150;8.150;2022-10-16T02:37:12;2.23;;;1.57;;
22357;SDS011;11346;50.150;8.150;2022-10-16T02:39:39;4.17;;;1.80;;
22357;SDS011;11346;50.150;8.150;2022-10-16T02:42:09;4.07;;;1.60;;
22357;SDS011;11346;50.150;8.150;2022-10-16T02:44:36;6.83;;;1.87;;
22357;SDS011;11346;50.150;8.150;2022-10-16T02:47:03;5.40;;;1.80;;
22357;SDS011;11346;50.150;8.150;2022-10-16T02:49:30;4.27;;;2.10;;
22357;SDS011;11346;50.150;8.150;2022-10-16T02:51:59;2.77;;;1.90;;
22357;SDS011;11346;50.150;8.150;2022-10-16T02:54:26;1.70;;;1.60;;
22357;SDS011;11346;50.150;8.150;2022-10-16T02:56:53;2.30;;;1.97;;
22357;SDS011;11346;50.150;8.150;2022-10-16T02:59:20;3.33;;;1.73;;
22357;SDS011;11346;50.150;8.150;2022-10-16T03:01:47;5.73;;;2.10;;
22357;SDS011;11346;50.150;8.150;2022-10-16T03:04:14;4.17;;;2.20;;
22357;SDS011;11346;50.150;8.150;2022-10-16T03:06:41;3.13;;;1.90;;
22357;SDS011;11346;50.150;8.150;2022-10-16T03:09:09;1.70;;;1.60;;
22357;SDS011;11346;50.150;8.150;2022-10-16T03:11:36;1.90;;;1.50;;
22357;SDS011;11346;50.150;8.150;2022-10-16T03:14:03;3.70;;;1.80;;
22357;SDS011;11346;50.150;8.150;2022-10-16T03:16:30;1.60;;;1.50;;
22357;SDS011;11346;50.150;8.150;2022-10-16T03:18:57;2.63;;;1.77;;
22357;SDS011;11346;50.150;8.150;2022-10-16T03:21:24;4.77;;;1.93;;
22357;SDS011;11346;50.150;8.150;2022-10-16T03:23:51;1.73;;;1.60;;
22357;SDS011;11346;50.150;8.150;2022-10-16T03:26:19;3.40;;;2.00;;
22357;SDS011;11346;50.150;8.150;2022-10-16T03:28:46;4.33;;;1.57;;
22357;SDS011;11346;50.150;8.150;2022-10-16T03:31:13;1.50;;;1.40;;
22357;SDS011;11346;50.150;8.150;2022-10-16T03:33:40;1.40;;;1.40;;
22357;SDS011;11346;50.150;8.150;2022-10-16T03:36:08;8.97;;;1.90;;
22357;SDS011;11346;50.150;8.150;2022-10-16T03:38:35;2.10;;;1.30;;
22357;SDS011;11346;50.150;8.150;2022-10-16T03:41:02;1.40;;;1.30;;
22357;SDS011;11346;50.150;8.150;2022-10-16T03:43:30;2.50;;;1.33;;
22357;SDS011;11346;50.150;8.150;2022-10-16T03:45:57;2.13;;;1.40;;
22357;SDS011;11346;50.150;8.150;2022-10-16T03:48:24;3.03;;;1.37;;
22357;SDS011;11346;50.150;8.150;2022-10-16T03:50:51;4.03;;;1.30;;
22357;SDS011;11346;50.150;8.150;2022-10-16T03:53:20;1.57;;;1.47;;
22357;SDS011;11346;50.150;8.150;2022-10-16T03:55:47;1.50;;;1.40;;
22357;SDS011;11346;50.150;8.150;2022-10-16T03:58:14;1.57;;;1.47;;
22357;SDS011;11346;50.150;8.150;2022-10-16T04:00:42;1.40;;;1.30;;
22357;SDS011;11346;50.150;8.150;2022-10-16T04:03:09;1.27;;;1.23;;
22357;SDS011;11346;50.150;8.150;2022-10-16T04:05:37;3.60;;;1.40;;
22357;SDS011;11346;50.150;8.150;2022-10-16T04:08:04;1.33;;;1.20;;
22357;SDS011;11346;50.150;8.150;2022-10-16T04:10:31;1.20;;;1.20;;
22357;SDS011;11346;50.150;8.150;2022-10-16T04:12:58;1.50;;;1.40;;
22357;SDS011;11346;50.150;8.150;2022-10-16T04:15:25;1.80;;;1.10;;
22357;SDS011;11346;50.150;8.150;2022-10-16T04:17:53;1.07;;;1.00;;
22357;SDS011;11346;50.150;8.150;2022-10-16T04:20:20;1.50;;;1.20;;
22357;SDS011;11346;50.150;8.150;2022-10-16T04:22:47;1.60;;;1.20;;
22357;SDS011;11346;50.150;8.150;2022-10-16T04:25:15;2.57;;;1.30;;
22357;SDS011;11346;50.150;8.150;2022-10-16T04:27:42;1.27;;;1.27;;
22357;SDS011;11346;50.150;8.150;2022-10-16T04:30:09;1.50;;;1.40;;
22357;SDS011;11346;50.150;8.150;2022-10-16T04:32:36;1.80;;;1.00;;
22357;SDS011;11346;50.150;8.150;2022-10-16T04:35:05;2.03;;;1.20;;
22357;SDS011;11346;50.150;8.150;2022-10-16T04:37:32;1.77;;;1.20;;
22357;SDS011;11346;50.150;8.150;2022-10-16T04:39:59;1.10;;;1.10;;
22357;SDS011;11346;50.150;8.150;2022-10-16T04:42:26;1.80;;;1.10;;
22357;SDS011;11346;50.150;8.150;2022-10-16T04:44:53;1.30;;;1.20;;
22357;SDS011;11346;50.150;8.150;2022-10-16T04:47:20;2.00;;;1.20;;
22357;SDS011;11346;50.150;8.150;2022-10-16T04:49:47;1.80;;;1.50;;
22357;SDS011;11346;50.150;8.150;2022-10-16T04:52:15;1.80;;;1.20;;
22357;SDS011;11346;50.150;8.150;2022-10-16T04:54:43;1.10;;;1.10;;
22357;SDS011;11346;50.150;8.150;2022-10-16T04:57:11;2.50;;;1.37;;
22357;SDS011;11346;50.150;8.150;2022-10-16T04:59:38;1.30;;;1.20;;
22357;SDS011;11346;50.150;8.150;2022-10-16T05:02:05;1.83;;;1.23;;
22357;SDS011;11346;50.150;8.150;2022-10-16T05:04:32;1.23;;;1.17;;
22357;SDS011;11346;50.150;8.150;2022-10-16T05:06:59;1.50;;;1.40;;
22357;SDS011;11346;50.150;8.150;2022-10-16T05:09:27;1.40;;;1.40;;
22357;SDS011;11346;50.150;8.150;2022-10-16T05:11:54;1.50;;;1.40;;
22357;SDS011;11346;50.150;8.150;2022-10-16T05:14:21;2.30;;;1.77;;
22357;SDS011;11346;50.150;8.150;2022-10-16T05:16:48;1.87;;;1.70;;
22357;SDS011;11346;50.150;8.150;2022-10-16T05:19:16;1.97;;;1.83;;
22357;SDS011;11346;50.150;8.150;2022-10-16T05:21:43;2.30;;;2.10;;
22357;SDS011;11346;50.150;8.150;2022-10-16T05:24:10;2.43;;;2.10;;
22357;SDS011;11346;50.150;8.150;2022-10-16T05:26:39;2.57;;;2.37;;
22357;SDS011;11346;50.150;8.150;2022-10-16T05:29:06;2.70;;;2.50;;
22357;SDS011;11346;50.150;8.150;2022-10-16T05:31:33;2.60;;;2.40;;
22357;SDS011;11346;50.150;8.150;2022-10-16T05:34:00;2.57;;;2.37;;
22357;SDS011;11346;50.150;8.150;2022-10-16T05:36:28;7.17;;;2.67;;
22357;SDS011;11346;50.150;8.150;2022-10-16T05:38:55;3.40;;;2.57;;
22357;SDS011;11346;50.150;8.150;2022-10-16T05:41:22;4.63;;;2.30;;
22357;SDS011;11346;50.150;8.150;2022-10-16T05:43:52;4.43;;;2.60;;
22357;SDS011;11346;50.150;8.150;2022-10-16T05:46:19;3.93;;;2.27;;
22357;SDS011;11346;50.150;8.150;2022-10-16T05:48:47;3.03;;;2.57;;
22357;SDS011;11346;50.150;8.150;2022-10-16T05:51:14;5.27;;;2.87;;
22357;SDS011;11346;50.150;8.150;2022-10-16T05:53:41;2.60;;;2.40;;
22357;SDS011;11346;50.150;8.150;2022-10-16T05:56:09;6.77;;;2.93;;
22357;SDS011;11346;50.150;8.150;2022-10-16T05:58:37;6.17;;;2.53;;
22357;SDS011;11346;50.150;8.150;2022-10-16T06:01:07;2.37;;;2.17;;
22357;SDS011;11346;50.150;8.150;2022-10-16T06:03:35;2.20;;;2.00;;
22357;SDS011;11346;50.150;8.150;2022-10-16T06:06:07;3.53;;;2.30;;
22357;SDS011;11346;50.150;8.150;2022-10-16T06:08:34;2.27;;;2.07;;
22357;SDS011;11346;50.150;8.150;2022-10-16T06:11:01;2.37;;;2.17;;
22357;SDS011;11346;50.150;8.150;2022-10-16T06:13:28;2.53;;;2.33;;
22357;SDS011;11346;50.150;8.150;2022-10-16T06:15:56;1.80;;;1.70;;
22357;SDS011;11346;50.150;8.150;2022-10-16T06:18:25;3.53;;;2.53;;
22357;SDS011;11346;50.150;8.150;2022-10-16T06:20:53;4.90;;;2.60;;
22357;SDS011;11346;50.150;8.150;2022-10-16T06:23:20;2.50;;;2.30;;
22357;SDS011;11346;50.150;8.150;2022-10-16T06:25:47;3.10;;;2.77;;
22357;SDS011;11346;50.150;8.150;2022-10-16T06:28:14;2.57;;;2.40;;
22357;SDS011;11346;50.150;8.150;2022-10-16T06:30:41;4.57;;;2.60;;
22357;SDS011;11346;50.150;8.150;2022-10-16T06:33:09;2.70;;;2.47;;
22357;SDS011;11346;50.150;8.150;2022-10-16T06:35:37;2.70;;;2.50;;
22357;SDS011;11346;50.150;8.150;2022-10-16T06:38:04;3.37;;;2.93;;
22357;SDS011;11346;50.150;8.150;2022-10-16T06:40:31;5.37;;;3.20;;
22357;SDS011;11346;50.150;8.150;2022-10-16T06:42:58;3.13;;;2.90;;
22357;SDS011;11346;50.150;8.150;2022-10-16T06:45:25;4.40;;;3.40;;
22357;SDS011;11346;50.150;8.150;2022-10-16T06:47:52;4.73;;;3.07;;
22357;SDS011;11346;50.150;8.150;2022-10-16T06:50:19;3.63;;;3.27;;
22357;SDS011;11346;50.150;8.150;2022-10-16T06:52:48;3.43;;;3.17;;
22357;SDS011;11346;50.150;8.150;2022-10-16T06:55:15;6.53;;;3.90;;
22357;SDS011;11346;50.150;8.150;2022-10-16T06:57:42;5.00;;;3.67;;
22357;SDS011;11346;50.150;8.150;2022-10-16T07:00:09;4.07;;;3.67;;
22357;SDS011;11346;50.150;8.150;2022-10-16T07:02:36;4.07;;;3.53;;
22357;SDS011;11346;50.150;8.150;2022-10-16T07:05:04;4.13;;;3.70;;
22357;SDS011;11346;50.150;8.150;2022-10-16T07:07:31;4.80;;;4.30;;
22357;SDS011;11346;50.150;8.150;2022-10-16T07:10:00;7.27;;;4.40;;
22357;SDS011;11346;50.150;8.150;2022-10-16T07:12:27;4.57;;;4.10;;
22357;SDS011;11346;50.150;8.150;2022-10-16T07:14:54;4.90;;;4.40;;
22357;SDS011;11346;50.150;8.150;2022-10-16T07:17:21;5.87;;;3.63;;
22357;SDS011;11346;50.150;8.150;2022-10-16T07:19:48;3.87;;;3.57;;
22357;SDS011;11346;50.150;8.150;2022-10-16T07:22:17;5.53;;;3.90;;
22357;SDS011;11346;50.150;8.150;2022-10-16T07:24:44;3.83;;;3.20;;
22357;SDS011;11346;50.150;8.150;2022-10-16T07:27:13;7.40;;;3.80;;
22357;SDS011;11346;50.150;8.150;2022-10-16T07:29:41;5.77;;;3.50;;
22357;SDS011;11346;50.150;8.150;2022-10-16T07:32:08;6.60;;;3.20;;
22357;SDS011;11346;50.150;8.150;2022-10-16T07:34:35;5.30;;;3.80;;
22357;SDS011;11346;50.150;8.150;2022-10-16T07:37:02;4.60;;;3.50;;
22357;SDS011;11346;50.150;8.150;2022-10-16T07:39:29;4.47;;;3.87;;
22357;SDS011;11346;50.150;8.150;2022-10-16T07:41:56;3.77;;;3.47;;
22357;SDS011;11346;50.150;8.150;2022-10-16T07:44:25;4.90;;;4.00;;
22357;SDS011;11346;50.150;8.150;2022-10-16T07:46:52;5.13;;;3.90;;
22357;SDS011;11346;50.150;8.150;2022-10-16T07:49:19;4.30;;;3.90;;
22357;SDS011;11346;50.150;8.150;2022-10-16T07:51:46;5.77;;;3.40;;
22357;SDS011;11346;50.150;8.150;2022-10-16T07:54:13;4.53;;;3.30;;
22357;SDS011;11346;50.150;8.150;2022-10-16T07:56:40;4.93;;;3.40;;
22357;SDS011;11346;50.150;8.150;2022-10-16T07:59:07;4.53;;;3.60;;
22357;SDS011;11346;50.150;8.150;2022-10-16T08:01:36;4.43;;;4.03;;
22357;SDS011;11346;50.150;8.150;2022-10-16T08:04:03;4.47;;;3.60;;
22357;SDS011;11346;50.150;8.150;2022-10-16T08:06:30;6.83;;;3.50;;
22357;SDS011;11346;50.150;8.150;2022-10-16T08:09:01;6.03;;;4.20;;
22357;SDS011;11346;50.150;8.150;2022-10-16T08:11:28;4.07;;;3.60;;
22357;SDS011;11346;50.150;8.150;2022-10-16T08:13:55;6.40;;;4.00;;
22357;SDS011;11346;50.150;8.150;2022-10-16T08:16:22;5.07;;;3.57;;
22357;SDS011;11346;50.150;8.150;2022-10-16T08:18:50;3.90;;;3.60;;
22357;SDS011;11346;50.150;8.150;2022-10-16T08:21:19;4.40;;;3.97;;
22357;SDS011;11346;50.150;8.150;2022-10-16T08:23:46;5.50;;;3.53;;
22357;SDS011;11346;50.150;8.150;2022-10-16T08:26:13;4.30;;;3.87;;
22357;SDS011;11346;50.150;8.150;2022-10-16T08:28:40;4.47;;;3.83;;
22357;SDS011;11346;50.150;8.150;2022-10-16T08:31:08;4.40;;;4.00;;
22357;SDS011;11346;50.150;8.150;2022-10-16T08:33:35;6.53;;;4.27;;
22357;SDS011;11346;50.150;8.150;2022-10-16T08:36:04;8.30;;;4.70;;
22357;SDS011;11346;50.150;8.150;2022-10-16T08:38:32;4.80;;;4.30;;
22357;SDS011;11346;50.150;8.150;2022-10-16T08:41:02;6.43;;;4.90;;
22357;SDS011;11346;50.150;8.150;2022-10-16T08:43:40;6.53;;;4.13;;
22357;SDS011;11346;50.150;8.150;2022-10-16T08:46:18;6.67;;;4.47;;
22357;SDS011;11346;50.150;8.150;2022-10-16T08:48:48;6.57;;;4.90;;
22357;SDS011;11346;50.150;8.150;2022-10-16T08:51:19;6.93;;;4.00;;
22357;SDS011;11346;50.150;8.150;2022-10-16T08:53:49;5.03;;;4.53;;
22357;SDS011;11346;50.150;8.150;2022-10-16T08:56:17;4.30;;;3.90;;
22357;SDS011;11346;50.150;8.150;2022-10-16T08:58:44;4.87;;;3.93;;
22357;SDS011;11346;50.150;8.150;2022-10-16T09:01:12;5.10;;;4.27;;
22357;SDS011;11346;50.150;8.150;2022-10-16T09:03:43;5.23;;;4.17;;
22357;SDS011;11346;50.150;8.150;2022-10-16T09:06:17;3.67;;;2.90;;
22357;SDS011;11346;50.150;8.150;2022-10-16T09:08:54;3.97;;;2.93;;
22357;SDS011;11346;50.150;8.150;2022-10-16T09:11:24;4.70;;;2.87;;
22357;SDS011;11346;50.150;8.150;2022-10-16T09:13:54;4.63;;;3.40;;
22357;SDS011;11346;50.150;8.150;2022-10-16T09:16:26;5.27;;;3.67;;
22357;SDS011;11346;50.150;8.150;2022-10-16T09:18:55;4.27;;;2.17;;
22357;SDS011;11346;50.150;8.150;2022-10-16T09:21:25;2.60;;;2.07;;
22357;SDS011;11346;50.150;8.150;2022-10-16T09:23:55;4.13;;;2.30;;
22357;SDS011;11346;50.150;8.150;2022-10-16T09:26:24;1.90;;;1.80;;
22357;SDS011;11346;50.150;8.150;2022-10-16T09:28:51;2.90;;;1.90;;
22357;SDS011;11346;50.150;8.150;2022-10-16T09:31:19;2.10;;;2.00;;
22357;SDS011;11346;50.150;8.150;2022-10-16T09:33:47;1.80;;;1.70;;
22357;SDS011;11346;50.150;8.150;2022-10-16T09:36:15;2.20;;;2.00;;
22357;SDS011;11346;50.150;8.150;2022-10-16T09:38:43;2.13;;;1.93;;
22357;SDS011;11346;50.150;8.150;2022-10-16T09:41:14;3.23;;;2.93;;
22357;SDS011;11346;50.150;8.150;2022-10-16T09:43:46;3.33;;;2.33;;
22357;SDS011;11346;50.150;8.150;2022-10-16T09:46:21;3.80;;;2.00;;
22357;SDS011;11346;50.150;8.150;2022-10-16T09:48:49;2.50;;;1.70;;
22357;SDS011;11346;50.150;8.150;2022-10-16T09:51:18;2.13;;;1.93;;
22357;SDS011;11346;50.150;8.150;2022-10-16T09:53:46;3.17;;;2.13;;
22357;SDS011;11346;50.150;8.150;2022-10-16T09:56:22;2.73;;;2.53;;
22357;SDS011;11346;50.150;8.150;2022-10-16T09:58:49;2.70;;;2.50;;
22357;SDS011;11346;50.150;8.150;2022-10-16T10:01:17;2.53;;;2.33;;
22357;SDS011;11346;50.150;8.150;2022-10-16T10:03:45;7.57;;;5.10;;
22357;SDS011;11346;50.150;8.150;2022-10-16T10:06:21;5.27;;;2.40;;
22357;SDS011;11346;50.150;8.150;2022-10-16T10:08:55;2.90;;;2.30;;
22357;SDS011;11346;50.150;8.150;2022-10-16T10:11:37;2.87;;;2.60;;
22357;SDS011;11346;50.150;8.150;2022-10-16T10:14:04;2.47;;;2.27;;
22357;SDS011;11346;50.150;8.150;2022-10-16T10:16:31;2.57;;;2.37;;
22357;SDS011;11346;50.150;8.150;2022-10-16T10:18:58;2.57;;;2.37;;
22357;SDS011;11346;50.150;8.150;2022-10-16T10:21:26;4.10;;;3.00;;
22357;SDS011;11346;50.150;8.150;2022-10-16T10:23:55;2.53;;;2.37;;
22357;SDS011;11346;50.150;8.150;2022-10-16T10:26:23;2.70;;;2.50;;
22357;SDS011;11346;50.150;8.150;2022-10-16T10:28:54;3.03;;;2.20;;
22357;SDS011;11346;50.150;8.150;2022-10-16T10:31:24;2.73;;;2.53;;
22357;SDS011;11346;50.150;8.150;2022-10-16T10:33:54;2.37;;;2.20;;
22357;SDS011;11346;50.150;8.150;2022-10-16T10:36:25;3.10;;;2.17;;
22357;SDS011;11346;50.150;8.150;2022-10-16T10:38:54;4.13;;;2.30;;
22357;SDS011;11346;50.150;8.150;2022-10-16T10:44:11;2.47;;;2.27;;
22357;SDS011;11346;50.150;8.150;2022-10-16T10:46:44;2.77;;;2.57;;
22357;SDS011;11346;50.150;8.150;2022-10-16T10:49:16;2.60;;;2.40;;
22357;SDS011;11346;50.150;8.150;2022-10-16T10:51:49;2.97;;;2.70;;
22357;SDS011;11346;50.150;8.150;2022-10-16T10:54:20;2.50;;;2.30;;
22357;SDS011;11346;50.150;8.150;2022-10-16T10:56:50;2.60;;;2.40;;
22357;SDS011;11346;50.150;8.150;2022-10-16T10:59:30;2.57;;;2.37;;
22357;SDS011;11346;50.150;8.150;2022-10-16T11:01:59;3.47;;;2.50;;
22357;SDS011;11346;50.150;8.150;2022-10-16T11:04:34;2.43;;;2.27;;
22357;SDS011;11346;50.150;8.150;2022-10-16T11:07:04;2.77;;;2.57;;
22357;SDS011;11346;50.150;8.150;2022-10-16T11:09:32;2.57;;;2.37;;
22357;SDS011;11346;50.150;8.150;2022-10-16T11:12:00;4.43;;;2.67;;
22357;SDS011;11346;50.150;8.150;2022-10-16T11:14:30;3.57;;;2.40;;
22357;SDS011;11346;50.150;8.150;2022-10-16T11:17:02;3.07;;;2.20;;
22357;SDS011;11346;50.150;8.150;2022-10-16T11:19:33;2.67;;;2.43;;
22357;SDS011;11346;50.150;8.150;2022-10-16T11:22:04;2.80;;;2.60;;
22357;SDS011;11346;50.150;8.150;2022-10-16T11:24:35;2.87;;;2.60;;
22357;SDS011;11346;50.150;8.150;2022-10-16T11:27:07;3.10;;;2.90;;
22357;SDS011;11346;50.150;8.150;2022-10-16T11:29:36;3.43;;;3.07;;
22357;SDS011;11346;50.150;8.150;2022-10-16T11:32:11;4.43;;;3.13;;
22357;SDS011;11346;50.150;8.150;2022-10-16T11:34:42;4.13;;;3.03;;
22357;SDS011;11346;50.150;8.150;2022-10-16T11:37:12;4.47;;;4.07;;
22357;SDS011;11346;50.150;8.150;2022-10-16T11:39:41;7.03;;;5.03;;
22357;SDS011;11346;50.150;8.150;2022-10-16T11:42:10;4.60;;;4.20;;
22357;SDS011;11346;50.150;8.150;2022-10-16T11:44:50;5.53;;;3.97;;
22357;SDS011;11346;50.150;8.150;2022-10-16T11:47:23;6.93;;;4.00;;
22357;SDS011;11346;50.150;8.150;2022-10-16T11:49:51;6.47;;;4.20;;
22357;SDS011;11346;50.150;8.150;2022-10-16T11:52:20;8.53;;;3.87;;
22357;SDS011;11346;50.150;8.150;2022-10-16T11:54:51;4.47;;;4.07;;
22357;SDS011;11346;50.150;8.150;2022-10-16T11:57:20;4.97;;;3.67;;
22357;SDS011;11346;50.150;8.150;2022-10-16T11:59:48;5.77;;;3.30;;
22357;SDS011;11346;50.150;8.150;2022-10-16T12:02:26;3.00;;;2.80;;
22357;SDS011;11346;50.150;8.150;2022-10-16T12:04:57;4.03;;;2.73;;
22357;SDS011;11346;50.150;8.150;2022-10-16T12:07:31;2.90;;;2.70;;
22357;SDS011;11346;50.150;8.150;2022-10-16T12:10:09;3.47;;;3.17;;
22357;SDS011;11346;50.150;8.150;2022-10-16T12:12:37;4.70;;;3.23;;
22357;SDS011;11346;50.150;8.150;2022-10-16T12:15:18;4.80;;;3.00;;
22357;SDS011;11346;50.150;8.150;2022-10-16T12:17:46;3.87;;;2.53;;
22357;SDS011;11346;50.150;8.150;2022-10-16T12:20:21;3.13;;;2.10;;
22357;SDS011;11346;50.150;8.150;2022-10-16T12:22:49;3.73;;;1.97;;
22357;SDS011;11346;50.150;8.150;2022-10-16T12:25:20;3.03;;;2.40;;
22357;SDS011;11346;50.150;8.150;2022-10-16T12:27:53;3.43;;;2.40;;
22357;SDS011;11346;50.150;8.150;2022-10-16T12:30:21;2.37;;;2.17;;
22357;SDS011;11346;50.150;8.150;2022-10-16T12:32:54;3.67;;;2.23;;
22357;SDS011;11346;50.150;8.150;2022-10-16T12:35:22;2.20;;;2.00;;
22357;SDS011;11346;50.150;8.150;2022-10-16T12:37:50;2.33;;;1.77;;
22357;SDS011;11346;50.150;8.150;2022-10-16T12:40:24;2.20;;;2.00;;
22357;SDS011;11346;50.150;8.150;2022-10-16T12:42:52;3.07;;;1.83;;
22357;SDS011;11346;50.150;8.150;2022-10-16T12:45:23;2.07;;;1.97;;
22357;SDS011;11346;50.150;8.150;2022-10-16T12:47:51;2.23;;;2.10;;
22357;SDS011;11346;50.150;8.150;2022-10-16T12:50:25;2.50;;;2.30;;
22357;SDS011;11346;50.150;8.150;2022-10-16T12:52:53;5.77;;;2.00;;
22357;SDS011;11346;50.150;8.150;2022-10-16T12:55:20;1.90;;;1.80;;
22357;SDS011;11346;50.150;8.150;2022-10-16T12:57:56;1.70;;;1.60;;
22357;SDS011;11346;50.150;8.150;2022-10-16T13:00:28;2.43;;;1.87;;
22357;SDS011;11346;50.150;8.150;2022-10-16T13:03:02;3.33;;;1.93;;
22357;SDS011;11346;50.150;8.150;2022-10-16T13:05:38;3.43;;;1.67;;
22357;SDS011;11346;50.150;8.150;2022-10-16T13:08:14;3.67;;;1.70;;
22357;SDS011;11346;50.150;8.150;2022-10-16T13:10:47;3.10;;;2.40;;
22357;SDS011;11346;50.150;8.150;2022-10-16T13:13:40;1.70;;;1.60;;
22357;SDS011;11346;50.150;8.150;2022-10-16T13:16:13;3.77;;;2.17;;
22357;SDS011;11346;50.150;8.150;2022-10-16T13:18:44;2.00;;;1.90;;
22357;SDS011;11346;50.150;8.150;2022-10-16T13:21:21;1.90;;;1.80;;
22357;SDS011;11346;50.150;8.150;2022-10-16T13:23:53;3.30;;;1.90;;
22357;SDS011;11346;50.150;8.150;2022-10-16T13:26:23;2.07;;;1.77;;
22357;SDS011;11346;50.150;8.150;2022-10-16T13:28:57;5.67;;;1.90;;
22357;SDS011;11346;50.150;8.150;2022-10-16T13:31:25;1.80;;;1.70;;
22357;SDS011;11346;50.150;8.150;2022-10-16T13:33:52;3.37;;;2.00;;
22357;SDS011;11346;50.150;8.150;2022-10-16T13:36:23;2.37;;;2.20;;
22357;SDS011;11346;50.150;8.150;2022-10-16T13:38:59;2.00;;;1.87;;
22357;SDS011;11346;50.150;8.150;2022-10-16T13:41:26;2.30;;;2.20;;
22357;SDS011;11346;50.150;8.150;2022-10-16T13:43:53;2.37;;;2.17;;
22357;SDS011;11346;50.150;8.150;2022-10-16T13:46:21;4.07;;;2.23;;
22357;SDS011;11346;50.150;8.150;2022-10-16T13:48:56;2.60;;;2.10;;
22357;SDS011;11346;50.150;8.150;2022-10-16T13:51:24;3.50;;;2.20;;
22357;SDS011;11346;50.150;8.150;2022-10-16T13:53:51;2.70;;;2.00;;
22357;SDS011;11346;50.150;8.150;2022-10-16T13:56:19;2.47;;;2.07;;
22357;SDS011;11346;50.150;8.150;2022-10-16T13:58:57;2.47;;;2.20;;
22357;SDS011;11346;50.150;8.150;2022-10-16T14:01:25;2.20;;;2.00;;
22357;SDS011;11346;50.150;8.150;2022-10-16T14:03:52;4.40;;;2.40;;
22357;SDS011;11346;50.150;8.150;2022-10-16T14:06:20;2.60;;;2.27;;
22357;SDS011;11346;50.150;8.150;2022-10-16T14:08:51;5.70;;;2.47;;
22357;SDS011;11346;50.150;8.150;2022-10-16T14:11:21;2.90;;;2.20;;
22357;SDS011;11346;50.150;8.150;2022-10-16T14:13:48;3.57;;;2.30;;
22357;SDS011;11346;50.150;8.150;2022-10-16T14:16:18;2.50;;;2.17;;
22357;SDS011;11346;50.150;8.150;2022-10-16T14:18:46;2.30;;;2.10;;
22357;SDS011;11346;50.150;8.150;2022-10-16T14:21:17;3.90;;;2.37;;
22357;SDS011;11346;50.150;8.150;2022-10-16T14:23:45;2.63;;;2.20;;
22357;SDS011;11346;50.150;8.150;2022-10-16T14:26:14;3.23;;;2.60;;
22357;SDS011;11346;50.150;8.150;2022-10-16T14:28:42;3.40;;;2.40;;
22357;SDS011;11346;50.150;8.150;2022-10-16T14:31:28;2.87;;;2.30;;
22357;SDS011;11346;50.150;8.150;2022-10-16T14:33:56;2.33;;;2.20;;
22357;SDS011;11346;50.150;8.150;2022-10-16T14:36:23;5.67;;;2.30;;
22357;SDS011;11346;50.150;8.150;2022-10-16T14:38:54;12.87;;;4.53;;
22357;SDS011;11346;50.150;8.150;2022-10-16T14:41:24;7.03;;;4.93;;
22357;SDS011;11346;50.150;8.150;2022-10-16T14:43:52;2.37;;;2.27;;
22357;SDS011;11346;50.150;8.150;2022-10-16T14:46:21;2.77;;;2.57;;
22357;SDS011;11346;50.150;8.150;2022-10-16T14:48:51;4.30;;;2.17;;
22357;SDS011;11346;50.150;8.150;2022-10-16T14:51:19;5.00;;;2.40;;
22357;SDS011;11346;50.150;8.150;2022-10-16T14:53:47;3.27;;;2.30;;
22357;SDS011;11346;50.150;8.150;2022-10-16T14:56:15;4.80;;;2.80;;
22357;SDS011;11346;50.150;8.150;2022-10-16T14:58:45;5.03;;;2.70;;
22357;SDS011;11346;50.150;8.150;2022-10-16T15:01:12;5.53;;;3.17;;
22357;SDS011;11346;50.150;8.150;2022-10-16T15:03:39;4.20;;;3.30;;